Terminal Aerodrome Forecast
Issued by NWS

Home | Current Version | Previous Version | Text Only | Print | Product List | Glossary On
Versions: 1 2 3 4 5 6 7 8 9 10 11 12 13 14 15 16 17
000
FTUS44 KTSA 260520
TAFFYV
TAF
KFYV 260520Z 2606/2706 22004KT P6SM BKN035
     FM261300 19004KT P6SM SCT035
     FM261600 17010KT P6SM SCT250
     FM270100 14010KT P6SM VCTS BKN060CB PROB30 2702/2705 3SM TSRA
      BKN035CB=

USA.gov is the U.S. government's official web portal to all federal, state and local government web resources and services.